Time;durP1;ratioP1;P1;durP2;ratioP2;P2;SDS_P1;SDS_P2;PMS_P1;PMS_P2;Temp;Humidity;BMP_temperature;BMP_pressure;BME280_temperature;BME280_humidity;BME280_pressure;Samples;Min_cycle;Max_cycle;Signal;HPM_P1;HPM_P2
2022/01/22 00:00:05;;;;;;;;;;;22.20;29.20;;;;;;459622;258;1098;-45
2022/01/22 00:02:07;;;;;;;;;;;22.30;29.30;;;;;;457010;261;1360;-46
2022/01/22 00:04:08;;;;;;;;;;;22.30;29.30;;;;;;459648;258;1093;-46
2022/01/22 00:06:10;;;;;;;;;;;22.30;29.20;;;;;;457305;261;1307;-45
2022/01/22 00:08:11;;;;;;;;;;;22.30;29.20;;;;;;459596;258;2254;-46
2022/01/22 00:10:14;;;;;;;;;;;22.30;29.30;;;;;;457495;261;1077;-46
2022/01/22 00:12:24;;;;;;;;;;;22.30;29.20;;;;;;459800;259;2150;-46
2022/01/22 00:14:24;;;;;;;;;;;22.40;29.30;;;;;;449416;265;2238;-46
2022/01/22 00:16:25;;;;;;;;;;;22.40;29.20;;;;;;459678;258;1248;-45
2022/01/22 00:18:26;;;;;;;;;;;22.40;29.20;;;;;;457512;261;1085;-46
2022/01/22 00:20:28;;;;;;;;;;;22.40;29.20;;;;;;459632;258;1150;-46
2022/01/22 00:22:32;;;;;;;;;;;22.40;29.20;;;;;;457370;261;1244;-46
2022/01/22 00:24:37;;;;;;;;;;;22.40;29.20;;;;;;459555;258;2061;-44
2022/01/22 00:26:32;;;;;;;;;;;22.40;29.20;;;;;;449324;265;1566;-45
2022/01/22 00:28:34;;;;;;;;;;;22.40;29.20;;;;;;459883;258;1058;-46
2022/01/22 00:30:35;;;;;;;;;;;22.40;29.20;;;;;;457229;261;1090;-45
2022/01/22 00:32:36;;;;;;;;;;;22.40;29.20;;;;;;459557;258;2134;-45
2022/01/22 00:34:38;;;;;;;;;;;22.50;29.20;;;;;;457348;261;1088;-45
2022/01/22 00:36:39;;;;;;;;;;;22.40;29.20;;;;;;459711;258;1069;-45
2022/01/22 00:38:40;;;;;;;;;;;22.50;29.20;;;;;;449425;265;1233;-46
2022/01/22 00:40:49;;;;;;;;;;;22.50;29.20;;;;;;459690;258;1056;-45
2022/01/22 00:42:43;;;;;;;;;;;22.40;29.10;;;;;;449232;265;2406;-45
2022/01/22 00:44:46;;;;;;;;;;;22.40;29.20;;;;;;459661;258;1221;-46
2022/01/22 00:46:46;;;;;;;;;;;22.50;29.20;;;;;;456926;261;2161;-45
2022/01/22 00:48:47;;;;;;;;;;;22.50;29.20;;;;;;459620;258;1070;-45
2022/01/22 00:50:52;;;;;;;;;;;22.50;29.20;;;;;;457338;261;1328;-46
2022/01/22 00:52:50;;;;;;;;;;;22.50;29.20;;;;;;459417;259;2208;-46
2022/01/22 00:54:51;;;;;;;;;;;22.50;29.20;;;;;;457093;261;1076;-45
2022/01/22 00:56:53;;;;;;;;;;;22.50;29.20;;;;;;459605;258;1567;-45
2022/01/22 00:58:54;;;;;;;;;;;22.50;29.20;;;;;;457343;261;1062;-45
2022/01/22 01:00:55;;;;;;;;;;;22.60;29.20;;;;;;459869;258;1150;-46
2022/01/22 01:02:57;;;;;;;;;;;22.60;29.10;;;;;;457470;261;1020;-46
2022/01/22 01:04:58;;;;;;;;;;;22.60;29.20;;;;;;460021;258;993;-46
2022/01/22 01:06:59;;;;;;;;;;;22.60;29.20;;;;;;456935;261;1340;-46
2022/01/22 01:09:02;;;;;;;;;;;22.60;29.20;;;;;;459771;258;1234;-46
2022/01/22 01:11:02;;;;;;;;;;;22.60;29.10;;;;;;449992;265;2218;-46
2022/01/22 01:13:04;;;;;;;;;;;22.60;29.20;;;;;;459725;258;2190;-45
2022/01/22 01:15:17;;;;;;;;;;;22.60;29.10;;;;;;457003;261;2483;-46
2022/01/22 01:17:24;;;;;;;;;;;22.60;29.10;;;;;;459578;259;2198;-46
2022/01/22 01:33:15;;;;;;;;;;;22.60;29.10;;;;;;457054;261;2130;-45
2022/01/22 01:35:10;;;;;;;;;;;22.60;29.20;;;;;;459233;259;2264;-45
2022/01/22 01:37:13;;;;;;;;;;;22.60;29.10;;;;;;457435;261;1311;-46
2022/01/22 01:39:17;;;;;;;;;;;22.70;29.10;;;;;;459573;259;2444;-46
2022/01/22 01:41:22;;;;;;;;;;;22.70;29.10;;;;;;456845;261;2939;-45
2022/01/22 01:43:21;;;;;;;;;;;22.60;29.10;;;;;;459105;259;2421;-45
2022/01/22 01:45:17;;;;;;;;;;;22.70;29.10;;;;;;449357;265;2293;-45
2022/01/22 01:47:18;;;;;;;;;;;22.70;29.10;;;;;;460008;258;1097;-46
2022/01/22 01:49:19;;;;;;;;;;;22.70;29.10;;;;;;457422;261;1174;-45
2022/01/22 01:51:23;;;;;;;;;;;22.70;29.10;;;;;;459539;258;1075;-46
2022/01/22 01:53:40;;;;;;;;;;;22.70;29.10;;;;;;457153;260;2147;-46
2022/01/22 01:55:35;;;;;;;;;;;22.70;29.10;;;;;;457247;260;2406;-46
2022/01/22 01:57:39;;;;;;;;;;;22.70;29.10;;;;;;457519;260;2339;-46
2022/01/22 01:59:40;;;;;;;;;;;22.70;29.10;;;;;;457891;260;2299;-46
2022/01/22 02:01:41;;;;;;;;;;;22.70;29.10;;;;;;458151;259;1024;-46
2022/01/22 02:03:42;;;;;;;;;;;22.70;29.10;;;;;;457889;259;1207;-46
2022/01/22 02:05:44;;;;;;;;;;;22.70;29.10;;;;;;457663;260;1068;-46
2022/01/22 02:07:45;;;;;;;;;;;22.70;29.10;;;;;;457859;260;1246;-45
2022/01/22 02:09:46;;;;;;;;;;;22.70;29.10;;;;;;457818;259;1228;-45
2022/01/22 02:11:56;;;;;;;;;;;22.70;29.10;;;;;;457741;260;1129;-46
2022/01/22 02:14:03;;;;;;;;;;;22.70;29.10;;;;;;449738;265;2214;-45
2022/01/22 02:25:16;;;;;;;;;;;22.80;29.10;;;;;;466826;254;1209;-46
2022/01/22 02:27:17;;;;;;;;;;;22.80;29.10;;;;;;467039;254;1659;-46
2022/01/22 02:29:19;;;;;;;;;;;22.80;29.10;;;;;;467105;254;1019;-45
2022/01/22 02:31:26;;;;;;;;;;;22.80;29.10;;;;;;467091;254;1393;-46
2022/01/22 02:33:31;;;;;;;;;;;22.80;29.10;;;;;;466348;255;2268;-46
2022/01/22 02:35:29;;;;;;;;;;;22.80;29.10;;;;;;466301;255;2143;-46
2022/01/22 02:37:33;;;;;;;;;;;22.80;29.10;;;;;;466438;255;2193;-46
2022/01/22 02:39:37;;;;;;;;;;;22.80;29.10;;;;;;466455;254;2581;-46
2022/01/22 02:41:36;;;;;;;;;;;22.80;29.10;;;;;;466596;255;2033;-46
2022/01/22 02:43:36;;;;;;;;;;;22.80;29.10;;;;;;466926;255;2391;-45
2022/01/22 02:45:37;;;;;;;;;;;22.80;29.10;;;;;;466711;254;1098;-46
2022/01/22 02:47:39;;;;;;;;;;;22.80;29.10;;;;;;467114;254;1260;-45
2022/01/22 02:49:40;;;;;;;;;;;22.80;29.10;;;;;;467172;254;1049;-45
2022/01/22 02:51:41;;;;;;;;;;;22.80;29.10;;;;;;467110;254;1038;-46
2022/01/22 02:53:42;;;;;;;;;;;22.80;29.10;;;;;;466643;255;2118;-45
2022/01/22 02:55:45;;;;;;;;;;;22.80;29.10;;;;;;466762;254;1197;-46
2022/01/22 02:57:45;;;;;;;;;;;22.80;29.10;;;;;;466654;255;2393;-46
2022/01/22 02:59:46;;;;;;;;;;;22.80;29.10;;;;;;465636;254;1299;-46
2022/01/22 03:01:48;;;;;;;;;;;22.80;29.10;;;;;;465576;255;1232;-46
2022/01/22 03:03:49;;;;;;;;;;;22.80;29.10;;;;;;465869;256;1061;-46
2022/01/22 03:05:51;;;;;;;;;;;22.80;29.10;;;;;;465748;256;1249;-46
2022/01/22 03:07:54;;;;;;;;;;;22.80;29.10;;;;;;465597;256;1205;-46
2022/01/22 03:10:00;;;;;;;;;;;22.80;29.10;;;;;;462774;256;2756;-45
2022/01/22 03:12:15;;;;;;;;;;;22.90;29.10;;;;;;465437;255;2302;-46
2022/01/22 03:16:47;;;;;;;;;;;22.90;29.10;;;;;;462137;256;1546;-46
2022/01/22 03:18:43;;;;;;;;;;;22.90;29.10;;;;;;465821;255;2315;-46
2022/01/22 03:20:48;;;;;;;;;;;22.90;29.10;;;;;;466576;255;2225;-46
2022/01/22 03:23:05;;;;;;;;;;;22.90;29.10;;;;;;466508;255;2065;-45
2022/01/22 03:27:22;;;;;;;;;;;22.90;29.10;;;;;;466661;255;1287;-46
2022/01/22 03:29:31;;;;;;;;;;;22.90;29.10;;;;;;466927;255;2290;-45
2022/01/22 03:31:21;;;;;;;;;;;22.90;29.10;;;;;;464962;256;2095;-45
2022/01/22 03:33:23;;;;;;;;;;;22.90;29.00;;;;;;465392;256;2185;-46
2022/01/22 03:35:27;;;;;;;;;;;22.90;29.00;;;;;;465805;256;2484;-45
2022/01/22 03:37:26;;;;;;;;;;;22.90;29.00;;;;;;465269;256;2392;-45
2022/01/22 03:39:27;;;;;;;;;;;23.00;29.10;;;;;;465837;256;1065;-46
2022/01/22 03:41:29;;;;;;;;;;;23.00;29.00;;;;;;465521;255;1348;-45
2022/01/22 03:43:30;;;;;;;;;;;23.00;29.00;;;;;;465415;255;1120;-46
2022/01/22 03:45:31;;;;;;;;;;;23.00;29.10;;;;;;465818;256;1468;-46
2022/01/22 03:47:33;;;;;;;;;;;23.00;29.10;;;;;;465759;256;1663;-46
2022/01/22 03:49:34;;;;;;;;;;;23.00;29.10;;;;;;465451;256;1081;-47
2022/01/22 03:51:35;;;;;;;;;;;23.00;29.00;;;;;;465468;256;1499;-45
2022/01/22 03:53:37;;;;;;;;;;;23.00;29.10;;;;;;465653;256;2151;-46
2022/01/22 03:55:48;;;;;;;;;;;22.90;29.10;;;;;;465633;256;1335;-46
2022/01/22 03:57:39;;;;;;;;;;;23.00;29.10;;;;;;464789;256;2312;-46
2022/01/22 03:59:41;;;;;;;;;;;22.90;29.20;;;;;;465834;256;1065;-45
2022/01/22 04:02:10;;;;;;;;;;;22.70;29.40;;;;;;465329;256;1229;-46
2022/01/22 04:04:00;;;;;;;;;;;22.50;29.60;;;;;;464525;256;2257;-45
2022/01/22 04:06:36;;;;;;;;;;;22.30;29.90;;;;;;465554;256;2364;-45
2022/01/22 04:08:18;;;;;;;;;;;22.10;30.00;;;;;;464263;256;2348;-45
2022/01/22 04:10:20;;;;;;;;;;;22.00;30.10;;;;;;465640;256;2481;-46
2022/01/22 04:12:27;;;;;;;;;;;22.00;30.20;;;;;;465347;255;2401;-45
2022/01/22 04:14:25;;;;;;;;;;;21.90;30.30;;;;;;464910;256;2380;-45
2022/01/22 04:16:22;;;;;;;;;;;21.90;30.40;;;;;;465258;256;1594;-45
2022/01/22 04:25:25;;;;;;;;;;;21.60;30.70;;;;;;465731;255;1149;-45
2022/01/22 04:27:24;;;;;;;;;;;21.60;30.70;;;;;;465162;256;2108;-45
2022/01/22 04:29:25;;;;;;;;;;;21.60;30.70;;;;;;465408;255;2193;-45
2022/01/22 04:31:26;;;;;;;;;;;21.50;30.80;;;;;;465355;255;1173;-45
2022/01/22 04:33:27;;;;;;;;;;;21.50;30.80;;;;;;465822;256;2196;-46
2022/01/22 04:35:29;;;;;;;;;;;21.50;30.90;;;;;;465426;255;1064;-45
2022/01/22 04:37:30;;;;;;;;;;;21.40;30.80;;;;;;465378;256;1245;-45
2022/01/22 04:39:31;;;;;;;;;;;21.40;30.80;;;;;;465545;255;1016;-45
2022/01/22 04:41:33;;;;;;;;;;;21.50;30.90;;;;;;465512;255;1332;-45
2022/01/22 04:43:36;;;;;;;;;;;21.40;30.90;;;;;;465868;255;1081;-45
2022/01/22 04:45:52;;;;;;;;;;;21.40;31.00;;;;;;465585;256;1534;-45
2022/01/22 04:47:51;;;;;;;;;;;21.40;31.00;;;;;;465110;256;2091;-45
2022/01/22 04:56:44;;;;;;;;;;;21.30;31.00;;;;;;465346;256;1336;-45
2022/01/22 04:58:45;;;;;;;;;;;21.30;31.10;;;;;;465575;256;1152;-46
2022/01/22 05:00:46;;;;;;;;;;;21.30;31.10;;;;;;465323;255;1341;-46
2022/01/22 05:02:47;;;;;;;;;;;21.30;31.10;;;;;;465358;256;1074;-45
2022/01/22 05:04:49;;;;;;;;;;;21.30;31.10;;;;;;465397;255;1079;-45
2022/01/22 05:06:50;;;;;;;;;;;21.30;31.20;;;;;;465484;256;1235;-45
2022/01/22 05:08:51;;;;;;;;;;;21.20;31.20;;;;;;465826;256;1059;-45
2022/01/22 05:10:53;;;;;;;;;;;21.20;31.20;;;;;;465377;255;1339;-45
2022/01/22 05:12:54;;;;;;;;;;;21.20;31.20;;;;;;465678;256;1079;-46
2022/01/22 05:14:56;;;;;;;;;;;21.20;31.20;;;;;;465373;256;2134;-45
2022/01/22 05:16:59;;;;;;;;;;;21.20;31.20;;;;;;465561;256;1105;-45
2022/01/22 05:19:07;;;;;;;;;;;21.20;31.20;;;;;;465723;256;2287;-45
2022/01/22 05:21:07;;;;;;;;;;;21.20;31.30;;;;;;465091;256;2127;-46
2022/01/22 05:23:07;;;;;;;;;;;21.10;31.30;;;;;;464854;256;1371;-45
2022/01/22 05:25:09;;;;;;;;;;;21.10;31.30;;;;;;465451;256;2222;-45
2022/01/22 05:27:26;;;;;;;;;;;21.10;31.30;;;;;;465016;256;2181;-45
2022/01/22 05:29:23;;;;;;;;;;;21.10;31.30;;;;;;464683;256;2333;-45
2022/01/22 05:31:35;;;;;;;;;;;21.10;31.20;;;;;;465484;256;2187;-45
2022/01/22 05:38:15;;;;;;;;;;;21.10;31.30;;;;;;465374;255;1778;-45
2022/01/22 05:40:17;;;;;;;;;;;21.10;31.40;;;;;;465566;256;1199;-45
2022/01/22 05:42:18;;;;;;;;;;;21.10;31.40;;;;;;465361;256;1211;-45
2022/01/22 05:44:19;;;;;;;;;;;21.10;31.40;;;;;;465403;256;1161;-45
2022/01/22 05:46:20;;;;;;;;;;;21.10;31.30;;;;;;465409;256;1133;-46
2022/01/22 05:48:22;;;;;;;;;;;21.00;31.30;;;;;;465689;255;1198;-45
2022/01/22 05:50:30;;;;;;;;;;;21.00;31.30;;;;;;465811;256;1109;-45
2022/01/22 05:52:34;;;;;;;;;;;21.00;31.40;;;;;;465589;256;2163;-46
2022/01/22 05:54:56;;;;;;;;;;;21.00;31.30;;;;;;465042;256;2134;-45
2022/01/22 06:01:29;;;;;;;;;;;21.00;31.40;;;;;;466608;255;1139;-45
2022/01/22 06:03:30;;;;;;;;;;;21.00;31.40;;;;;;466994;254;1103;-45
2022/01/22 06:05:31;;;;;;;;;;;21.00;31.40;;;;;;467065;254;1013;-45
2022/01/22 06:07:33;;;;;;;;;;;21.00;31.40;;;;;;466657;254;1362;-45
2022/01/22 06:09:36;;;;;;;;;;;21.00;31.40;;;;;;466697;254;1099;-45
2022/01/22 06:11:50;;;;;;;;;;;21.00;31.40;;;;;;466791;254;1757;-45
2022/01/22 06:13:44;;;;;;;;;;;20.90;31.40;;;;;;465926;255;2303;-45
2022/01/22 06:15:45;;;;;;;;;;;21.00;31.40;;;;;;466782;254;1069;-45
2022/01/22 06:17:46;;;;;;;;;;;20.90;31.40;;;;;;466800;254;1177;-45
2022/01/22 06:19:47;;;;;;;;;;;21.00;31.40;;;;;;467115;254;1094;-45
2022/01/22 06:21:51;;;;;;;;;;;21.00;31.40;;;;;;466584;254;1195;-45
2022/01/22 06:23:50;;;;;;;;;;;21.00;31.40;;;;;;466596;254;2200;-45
2022/01/22 06:25:51;;;;;;;;;;;21.00;31.40;;;;;;466880;254;1152;-45
2022/01/22 06:27:52;;;;;;;;;;;20.90;31.50;;;;;;466750;254;1268;-45
2022/01/22 06:29:54;;;;;;;;;;;20.90;31.50;;;;;;467012;254;1091;-45
2022/01/22 06:31:55;;;;;;;;;;;20.90;31.50;;;;;;466577;254;1373;-45
2022/01/22 06:33:58;;;;;;;;;;;20.90;31.50;;;;;;467043;254;2193;-45
2022/01/22 06:35:59;;;;;;;;;;;20.90;31.50;;;;;;466724;254;1114;-45
2022/01/22 06:38:02;;;;;;;;;;;20.90;31.50;;;;;;466844;254;1238;-45
2022/01/22 06:42:21;;;;;;;;;;;20.90;31.50;;;;;;466868;255;1200;-45
2022/01/22 06:44:22;;;;;;;;;;;20.90;31.50;;;;;;466712;254;1064;-45
2022/01/22 06:46:23;;;;;;;;;;;20.90;31.50;;;;;;466758;254;1176;-45
2022/01/22 06:48:25;;;;;;;;;;;20.90;31.50;;;;;;467084;254;1063;-45
2022/01/22 06:50:26;;;;;;;;;;;20.90;31.60;;;;;;467085;254;1057;-45
2022/01/22 06:52:29;;;;;;;;;;;20.90;31.50;;;;;;466628;254;1089;-45
2022/01/22 06:54:29;;;;;;;;;;;20.90;31.60;;;;;;466578;254;2208;-45
2022/01/22 06:56:30;;;;;;;;;;;20.80;31.60;;;;;;466614;254;1079;-45
2022/01/22 06:58:31;;;;;;;;;;;20.80;31.60;;;;;;466643;254;1290;-45
2022/01/22 07:00:33;;;;;;;;;;;20.80;31.60;;;;;;466693;254;1050;-45
2022/01/22 07:02:34;;;;;;;;;;;20.80;31.60;;;;;;466575;254;1588;-45
2022/01/22 07:04:37;;;;;;;;;;;20.80;31.60;;;;;;467065;254;1133;-45
2022/01/22 07:06:37;;;;;;;;;;;20.80;31.60;;;;;;466916;255;2442;-45
2022/01/22 07:08:38;;;;;;;;;;;20.80;31.60;;;;;;466698;254;1079;-46
2022/01/22 07:10:40;;;;;;;;;;;20.80;31.60;;;;;;466763;254;1069;-45
2022/01/22 07:12:41;;;;;;;;;;;20.80;31.60;;;;;;466854;255;1261;-45
2022/01/22 07:14:45;;;;;;;;;;;20.80;31.60;;;;;;467110;254;2197;-45
2022/01/22 07:16:44;;;;;;;;;;;20.80;31.60;;;;;;466450;255;2287;-45
2022/01/22 07:18:45;;;;;;;;;;;20.80;31.70;;;;;;466869;254;1092;-45
2022/01/22 07:20:49;;;;;;;;;;;20.80;31.70;;;;;;466677;254;1117;-45
2022/01/22 07:22:51;;;;;;;;;;;20.80;31.70;;;;;;466583;254;2511;-46
2022/01/22 07:24:50;;;;;;;;;;;20.80;31.60;;;;;;467018;255;1290;-45
2022/01/22 07:26:52;;;;;;;;;;;20.80;31.70;;;;;;466906;254;1342;-45
2022/01/22 07:28:53;;;;;;;;;;;20.80;31.70;;;;;;466626;254;1219;-45
2022/01/22 07:30:54;;;;;;;;;;;20.70;31.60;;;;;;467059;254;1726;-45
2022/01/22 07:32:55;;;;;;;;;;;20.70;31.70;;;;;;466677;254;1205;-45
2022/01/22 07:34:57;;;;;;;;;;;20.70;31.60;;;;;;466747;255;2122;-45
2022/01/22 07:37:02;;;;;;;;;;;20.80;31.70;;;;;;466824;254;1422;-45
2022/01/22 07:39:00;;;;;;;;;;;20.80;31.70;;;;;;466626;255;2231;-45
2022/01/22 07:41:01;;;;;;;;;;;20.80;31.70;;;;;;467080;254;1082;-45
2022/01/22 07:43:03;;;;;;;;;;;20.70;31.70;;;;;;466849;254;1219;-45
2022/01/22 07:45:04;;;;;;;;;;;20.70;31.70;;;;;;466516;254;1073;-45
2022/01/22 07:47:05;;;;;;;;;;;20.80;31.70;;;;;;466541;254;1206;-45
2022/01/22 07:49:07;;;;;;;;;;;20.80;31.70;;;;;;466615;254;1080;-45
2022/01/22 07:51:08;;;;;;;;;;;20.80;31.70;;;;;;466553;254;1335;-45
2022/01/22 07:53:09;;;;;;;;;;;20.80;31.70;;;;;;466873;254;1204;-46
2022/01/22 07:55:11;;;;;;;;;;;20.80;31.70;;;;;;466725;254;2205;-45
2022/01/22 07:57:12;;;;;;;;;;;20.70;31.70;;;;;;466483;254;1059;-45
2022/01/22 07:59:13;;;;;;;;;;;20.80;31.70;;;;;;466571;254;1179;-45
2022/01/22 08:01:14;;;;;;;;;;;20.70;31.70;;;;;;466656;254;1070;-45
2022/01/22 08:03:16;;;;;;;;;;;20.80;31.70;;;;;;467036;254;1199;-45
2022/01/22 08:05:17;;;;;;;;;;;20.70;31.70;;;;;;467052;254;1124;-46
2022/01/22 08:07:18;;;;;;;;;;;20.70;31.70;;;;;;466830;254;1145;-45
2022/01/22 08:09:20;;;;;;;;;;;20.70;31.70;;;;;;466610;254;1069;-45
2022/01/22 08:11:21;;;;;;;;;;;20.70;31.70;;;;;;467019;254;1142;-45
2022/01/22 08:13:23;;;;;;;;;;;20.70;31.60;;;;;;466614;254;1612;-45
2022/01/22 08:15:24;;;;;;;;;;;20.70;31.70;;;;;;466623;254;2138;-45
2022/01/22 08:17:25;;;;;;;;;;;20.80;31.70;;;;;;466527;254;1169;-45
2022/01/22 08:19:26;;;;;;;;;;;20.70;31.70;;;;;;465820;254;1132;-45
2022/01/22 08:21:28;;;;;;;;;;;20.70;31.70;;;;;;465291;255;1123;-45
2022/01/22 08:23:31;;;;;;;;;;;20.70;31.80;;;;;;465374;256;1100;-45
2022/01/22 08:25:32;;;;;;;;;;;20.70;31.70;;;;;;465306;255;2321;-45
2022/01/22 08:27:41;;;;;;;;;;;20.70;31.70;;;;;;465183;256;2098;-45
2022/01/22 08:29:36;;;;;;;;;;;20.60;31.70;;;;;;465009;256;2447;-45
2022/01/22 08:36:20;;;;;;;;;;;20.70;31.80;;;;;;465264;256;1932;-45
2022/01/22 08:38:22;;;;;;;;;;;20.70;31.70;;;;;;465464;256;1146;-45
2022/01/22 08:40:23;;;;;;;;;;;20.70;31.70;;;;;;465363;256;1051;-46
2022/01/22 08:42:24;;;;;;;;;;;20.60;31.70;;;;;;465465;256;1197;-45
2022/01/22 08:44:26;;;;;;;;;;;20.70;31.80;;;;;;465354;256;1669;-45
2022/01/22 08:46:27;;;;;;;;;;;20.70;31.70;;;;;;465557;255;1533;-45
2022/01/22 08:48:28;;;;;;;;;;;20.70;31.70;;;;;;465350;255;1229;-46
2022/01/22 08:50:30;;;;;;;;;;;20.70;31.70;;;;;;465382;255;1106;-45
2022/01/22 08:52:35;;;;;;;;;;;20.70;31.70;;;;;;465388;256;1265;-45
2022/01/22 08:54:32;;;;;;;;;;;20.70;31.80;;;;;;465230;256;2297;-45
2022/01/22 08:56:33;;;;;;;;;;;20.70;31.80;;;;;;465357;256;1056;-45
2022/01/22 08:58:35;;;;;;;;;;;20.60;31.70;;;;;;465502;256;1269;-45
2022/01/22 09:00:37;;;;;;;;;;;20.70;31.80;;;;;;465716;256;1110;-45
2022/01/22 09:02:37;;;;;;;;;;;20.70;31.80;;;;;;465194;256;2274;-45
2022/01/22 09:04:39;;;;;;;;;;;20.60;31.80;;;;;;465307;256;1104;-46
2022/01/22 09:06:40;;;;;;;;;;;20.60;31.80;;;;;;465342;256;1046;-45
2022/01/22 09:08:41;;;;;;;;;;;20.60;31.90;;;;;;465649;255;1077;-45
2022/01/22 09:10:43;;;;;;;;;;;20.60;31.80;;;;;;465422;256;1019;-45
2022/01/22 09:12:44;;;;;;;;;;;20.70;31.80;;;;;;465262;256;1086;-45
2022/01/22 09:14:45;;;;;;;;;;;20.60;31.80;;;;;;465312;255;2205;-45
2022/01/22 09:16:47;;;;;;;;;;;20.60;31.80;;;;;;465409;256;1109;-45
2022/01/22 09:18:50;;;;;;;;;;;20.70;31.80;;;;;;465760;256;1088;-45
2022/01/22 09:21:02;;;;;;;;;;;20.60;31.80;;;;;;465506;256;2335;-45
2022/01/22 09:22:58;;;;;;;;;;;20.60;31.80;;;;;;465034;256;2287;-45
2022/01/22 09:24:59;;;;;;;;;;;20.60;31.80;;;;;;465232;256;1075;-45
2022/01/22 09:27:04;;;;;;;;;;;20.60;31.80;;;;;;465309;256;1406;-45
2022/01/22 09:29:02;;;;;;;;;;;20.60;31.80;;;;;;465105;256;2476;-45
2022/01/22 09:31:03;;;;;;;;;;;20.60;31.80;;;;;;465414;255;1461;-45
2022/01/22 09:33:04;;;;;;;;;;;20.60;31.80;;;;;;465233;255;1215;-45
2022/01/22 09:35:05;;;;;;;;;;;20.60;31.80;;;;;;465678;255;2205;-45
2022/01/22 09:37:07;;;;;;;;;;;20.60;31.80;;;;;;465185;255;1178;-45
2022/01/22 09:39:08;;;;;;;;;;;20.60;31.80;;;;;;465520;256;1232;-45
2022/01/22 09:41:09;;;;;;;;;;;20.60;31.80;;;;;;465307;255;1057;-45
2022/01/22 09:43:11;;;;;;;;;;;20.60;31.80;;;;;;465328;256;1231;-45
2022/01/22 09:45:12;;;;;;;;;;;20.60;31.80;;;;;;465306;256;1162;-45
2022/01/22 09:47:14;;;;;;;;;;;20.60;31.80;;;;;;465405;256;1171;-45
2022/01/22 09:49:15;;;;;;;;;;;20.60;31.90;;;;;;465772;256;1223;-45
2022/01/22 09:51:16;;;;;;;;;;;20.60;31.80;;;;;;465694;256;1052;-46
2022/01/22 09:53:19;;;;;;;;;;;20.60;31.90;;;;;;465652;256;1234;-45
2022/01/22 09:55:19;;;;;;;;;;;20.60;31.90;;;;;;465424;255;2232;-45
2022/01/22 09:57:21;;;;;;;;;;;20.60;31.90;;;;;;465308;256;1348;-45
2022/01/22 09:59:22;;;;;;;;;;;20.60;31.90;;;;;;465578;256;1292;-45
2022/01/22 10:01:23;;;;;;;;;;;20.60;31.90;;;;;;465566;255;1117;-45
2022/01/22 10:03:25;;;;;;;;;;;20.60;31.90;;;;;;465329;255;1338;-45
2022/01/22 10:05:26;;;;;;;;;;;20.60;31.90;;;;;;465586;256;2289;-45
2022/01/22 10:07:27;;;;;;;;;;;20.60;31.90;;;;;;465252;256;1060;-46
2022/01/22 10:09:34;;;;;;;;;;;20.60;31.90;;;;;;465358;256;1045;-45
2022/01/22 10:11:30;;;;;;;;;;;20.60;31.90;;;;;;465009;256;2295;-45
2022/01/22 10:13:31;;;;;;;;;;;20.60;31.90;;;;;;465559;256;1353;-45
2022/01/22 10:15:35;;;;;;;;;;;20.60;31.80;;;;;;465362;256;2147;-45
2022/01/22 10:17:34;;;;;;;;;;;20.60;31.90;;;;;;465194;256;1798;-46
2022/01/22 10:19:35;;;;;;;;;;;20.60;31.90;;;;;;465335;256;1245;-45
2022/01/22 10:21:36;;;;;;;;;;;20.60;31.90;;;;;;465454;256;1193;-45
2022/01/22 10:23:40;;;;;;;;;;;20.60;31.90;;;;;;465330;255;1106;-45
2022/01/22 10:25:43;;;;;;;;;;;20.60;31.80;;;;;;465698;256;2465;-45
2022/01/22 10:27:47;;;;;;;;;;;20.60;31.90;;;;;;465127;256;1759;-45
2022/01/22 10:29:46;;;;;;;;;;;20.60;31.90;;;;;;462254;256;2219;-45
2022/01/22 10:31:46;;;;;;;;;;;20.60;31.90;;;;;;466844;255;2506;-46
2022/01/22 10:33:46;;;;;;;;;;;20.50;31.90;;;;;;468044;253;2149;-45
2022/01/22 10:35:47;;;;;;;;;;;20.50;31.90;;;;;;466776;254;2200;-46
2022/01/22 10:37:48;;;;;;;;;;;20.50;32.00;;;;;;466553;254;1083;-46
2022/01/22 10:39:50;;;;;;;;;;;20.50;31.90;;;;;;466626;254;1038;-45
2022/01/22 10:41:51;;;;;;;;;;;20.50;31.90;;;;;;466956;254;1186;-45
2022/01/22 10:43:53;;;;;;;;;;;20.50;31.90;;;;;;466733;254;1085;-45
2022/01/22 10:45:54;;;;;;;;;;;20.50;31.90;;;;;;466556;255;2450;-45
2022/01/22 10:47:55;;;;;;;;;;;20.60;32.00;;;;;;466462;254;1112;-45
2022/01/22 10:49:56;;;;;;;;;;;20.50;32.00;;;;;;465679;256;1089;-45
2022/01/22 10:51:59;;;;;;;;;;;20.50;32.00;;;;;;465670;255;1072;-45
2022/01/22 10:54:00;;;;;;;;;;;20.50;32.00;;;;;;465754;256;2586;-45
2022/01/22 10:56:00;;;;;;;;;;;20.50;32.00;;;;;;465420;256;2115;-45
2022/01/22 10:58:02;;;;;;;;;;;20.50;31.90;;;;;;465343;255;1085;-45
2022/01/22 11:00:03;;;;;;;;;;;20.60;31.90;;;;;;465332;255;1209;-45
2022/01/22 11:02:06;;;;;;;;;;;20.50;31.90;;;;;;465761;256;1058;-45
2022/01/22 11:04:06;;;;;;;;;;;20.50;32.00;;;;;;465621;256;2221;-45
2022/01/22 11:06:09;;;;;;;;;;;20.50;32.00;;;;;;465272;256;1102;-45
2022/01/22 11:08:09;;;;;;;;;;;20.50;32.00;;;;;;465176;255;2119;-46
2022/01/22 11:10:10;;;;;;;;;;;20.50;31.90;;;;;;465440;255;1148;-45
2022/01/22 11:12:11;;;;;;;;;;;20.50;32.00;;;;;;465299;256;1029;-45
2022/01/22 11:14:13;;;;;;;;;;;20.50;32.00;;;;;;465690;256;1089;-45
2022/01/22 11:16:14;;;;;;;;;;;20.50;32.00;;;;;;465264;256;2150;-45
2022/01/22 11:18:15;;;;;;;;;;;20.50;32.00;;;;;;465312;256;1091;-45
2022/01/22 11:20:16;;;;;;;;;;;20.50;32.00;;;;;;465755;256;1151;-45
2022/01/22 11:22:18;;;;;;;;;;;20.50;31.90;;;;;;465401;256;1059;-45
2022/01/22 11:24:19;;;;;;;;;;;20.50;32.00;;;;;;465540;255;1041;-45
2022/01/22 11:26:20;;;;;;;;;;;20.50;32.00;;;;;;465746;255;1311;-45
2022/01/22 11:28:22;;;;;;;;;;;20.50;32.00;;;;;;465345;255;1080;-45
2022/01/22 11:30:25;;;;;;;;;;;20.50;32.10;;;;;;462349;256;1323;-45
2022/01/22 11:32:24;;;;;;;;;;;20.50;32.00;;;;;;465169;256;2288;-45
2022/01/22 11:34:27;;;;;;;;;;;20.50;32.00;;;;;;466476;255;1213;-45
2022/01/22 11:36:27;;;;;;;;;;;20.50;32.00;;;;;;466599;255;2397;-45
2022/01/22 11:38:28;;;;;;;;;;;20.50;31.90;;;;;;466634;254;1130;-46
2022/01/22 11:40:32;;;;;;;;;;;20.50;32.00;;;;;;467020;254;1097;-46
2022/01/22 11:42:31;;;;;;;;;;;20.60;31.90;;;;;;466579;255;2402;-45
2022/01/22 11:44:36;;;;;;;;;;;20.80;31.60;;;;;;466608;254;1094;-45
2022/01/22 11:46:36;;;;;;;;;;;20.90;31.30;;;;;;466472;255;2301;-45
2022/01/22 11:48:37;;;;;;;;;;;21.10;31.10;;;;;;466590;255;2362;-45
2022/01/22 11:50:38;;;;;;;;;;;21.20;30.90;;;;;;466571;255;2191;-46
2022/01/22 11:52:39;;;;;;;;;;;21.30;30.70;;;;;;467050;254;1195;-45
2022/01/22 11:54:40;;;;;;;;;;;21.30;30.70;;;;;;466825;254;1088;-46
2022/01/22 11:56:42;;;;;;;;;;;21.40;30.60;;;;;;466624;254;2138;-46
2022/01/22 11:58:43;;;;;;;;;;;21.40;30.50;;;;;;466649;254;1080;-45
2022/01/22 12:00:44;;;;;;;;;;;21.50;30.30;;;;;;466768;254;1216;-45
2022/01/22 12:02:46;;;;;;;;;;;21.60;30.30;;;;;;466611;254;1075;-45
2022/01/22 12:04:48;;;;;;;;;;;21.60;30.20;;;;;;466641;254;1245;-45
2022/01/22 12:06:48;;;;;;;;;;;21.70;30.20;;;;;;466602;255;1644;-45
2022/01/22 12:08:50;;;;;;;;;;;21.70;30.20;;;;;;465595;254;1313;-45
2022/01/22 12:15:31;;;;;;;;;;;21.80;30.10;;;;;;465290;255;2070;-45
2022/01/22 12:17:32;;;;;;;;;;;21.80;30.00;;;;;;465656;256;2122;-45
2022/01/22 12:19:33;;;;;;;;;;;21.90;30.00;;;;;;465349;256;1033;-45
2022/01/22 12:21:35;;;;;;;;;;;21.90;30.00;;;;;;465718;256;1388;-45
2022/01/22 12:23:36;;;;;;;;;;;21.90;30.00;;;;;;465782;256;1083;-45
2022/01/22 12:25:37;;;;;;;;;;;21.90;30.00;;;;;;465812;256;1058;-46
2022/01/22 12:27:39;;;;;;;;;;;22.00;30.00;;;;;;465449;256;1249;-45
2022/01/22 12:29:41;;;;;;;;;;;22.00;30.00;;;;;;465761;256;1067;-45
2022/01/22 12:31:42;;;;;;;;;;;22.00;30.00;;;;;;465250;256;2352;-45
2022/01/22 12:33:43;;;;;;;;;;;22.00;29.90;;;;;;465764;256;1109;-46
2022/01/22 12:35:44;;;;;;;;;;;22.10;30.00;;;;;;465567;255;2193;-46
2022/01/22 12:37:50;;;;;;;;;;;22.10;29.90;;;;;;465364;256;1306;-45
2022/01/22 12:39:51;;;;;;;;;;;22.10;29.90;;;;;;465114;256;1376;-45
2022/01/22 12:41:50;;;;;;;;;;;22.10;29.90;;;;;;465182;256;2363;-45
2022/01/22 12:43:51;;;;;;;;;;;22.10;29.80;;;;;;465308;256;1061;-45
2022/01/22 12:45:53;;;;;;;;;;;22.10;29.80;;;;;;465535;255;1148;-45
2022/01/22 12:47:55;;;;;;;;;;;22.10;29.80;;;;;;465496;256;1160;-45
2022/01/22 12:49:56;;;;;;;;;;;22.10;29.80;;;;;;465321;255;1166;-45
2022/01/22 12:51:57;;;;;;;;;;;22.20;29.80;;;;;;465315;256;1336;-45
2022/01/22 12:53:59;;;;;;;;;;;22.10;29.80;;;;;;465667;256;1077;-46
2022/01/22 12:56:25;;;;;;;;;;;22.20;29.80;;;;;;465729;256;2250;-46
2022/01/22 12:58:05;;;;;;;;;;;22.20;29.80;;;;;;464332;256;1484;-45
2022/01/22 13:00:09;;;;;;;;;;;22.20;29.70;;;;;;465721;256;1095;-46
2022/01/22 13:02:07;;;;;;;;;;;22.20;29.80;;;;;;465124;256;2257;-45